sensor_id;sensor_type;location;lat;lon;timestamp;P1;durP1;ratioP1;P2;durP2;ratioP2
21492;SDS011;10908;50.690;4.400;2023-04-01T00:00:19;7.60;;;1.17;;
21492;SDS011;10908;50.690;4.400;2023-04-01T00:02:45;7.18;;;1.17;;
21492;SDS011;10908;50.690;4.400;2023-04-01T00:05:12;8.52;;;1.50;;
21492;SDS011;10908;50.690;4.400;2023-04-01T00:07:38;7.35;;;1.10;;
21492;SDS011;10908;50.690;4.400;2023-04-01T00:10:05;8.70;;;1.25;;
21492;SDS011;10908;50.690;4.400;2023-04-01T00:12:33;8.77;;;1.20;;
21492;SDS011;10908;50.690;4.400;2023-04-01T00:14:59;7.30;;;1.20;;
21492;SDS011;10908;50.690;4.400;2023-04-01T00:17:26;9.82;;;1.40;;
21492;SDS011;10908;50.690;4.400;2023-04-01T00:19:53;9.60;;;1.38;;
21492;SDS011;10908;50.690;4.400;2023-04-01T00:22:20;8.77;;;1.45;;
21492;SDS011;10908;50.690;4.400;2023-04-01T00:24:46;4.43;;;1.10;;
21492;SDS011;10908;50.690;4.400;2023-04-01T00:27:12;7.80;;;1.08;;
21492;SDS011;10908;50.690;4.400;2023-04-01T00:29:37;5.25;;;1.00;;
21492;SDS011;10908;50.690;4.400;2023-04-01T00:32:06;4.65;;;1.00;;
21492;SDS011;10908;50.690;4.400;2023-04-01T00:34:32;5.65;;;1.00;;
21492;SDS011;10908;50.690;4.400;2023-04-01T00:36:57;5.25;;;0.98;;
21492;SDS011;10908;50.690;4.400;2023-04-01T00:39:23;5.47;;;1.05;;
21492;SDS011;10908;50.690;4.400;2023-04-01T00:41:49;6.15;;;1.10;;
21492;SDS011;10908;50.690;4.400;2023-04-01T00:44:16;6.30;;;1.17;;
21492;SDS011;10908;50.690;4.400;2023-04-01T00:46:45;9.02;;;1.27;;
21492;SDS011;10908;50.690;4.400;2023-04-01T00:49:11;6.85;;;1.00;;
21492;SDS011;10908;50.690;4.400;2023-04-01T00:51:38;4.53;;;0.80;;
21492;SDS011;10908;50.690;4.400;2023-04-01T00:54:05;5.45;;;0.80;;
21492;SDS011;10908;50.690;4.400;2023-04-01T00:56:38;4.75;;;0.98;;
21492;SDS011;10908;50.690;4.400;2023-04-01T00:59:11;3.42;;;0.60;;
21492;SDS011;10908;50.690;4.400;2023-04-01T01:01:40;4.45;;;0.60;;
21492;SDS011;10908;50.690;4.400;2023-04-01T01:04:06;4.50;;;0.57;;
21492;SDS011;10908;50.690;4.400;2023-04-01T01:12:20;3.00;;;0.50;;
21492;SDS011;10908;50.690;4.400;2023-04-01T01:20:33;3.67;;;0.60;;
21492;SDS011;10908;50.690;4.400;2023-04-01T01:29:11;2.10;;;0.50;;
21492;SDS011;10908;50.690;4.400;2023-04-01T01:31:56;2.85;;;0.63;;
21492;SDS011;10908;50.690;4.400;2023-04-01T01:34:30;2.97;;;0.70;;
21492;SDS011;10908;50.690;4.400;2023-04-01T01:37:01;3.78;;;0.73;;
21492;SDS011;10908;50.690;4.400;2023-04-01T01:39:32;2.58;;;0.60;;
21492;SDS011;10908;50.690;4.400;2023-04-01T01:42:01;4.78;;;1.00;;
21492;SDS011;10908;50.690;4.400;2023-04-01T01:44:30;4.28;;;0.73;;
21492;SDS011;10908;50.690;4.400;2023-04-01T01:46:57;4.95;;;0.77;;
21492;SDS011;10908;50.690;4.400;2023-04-01T01:49:24;3.83;;;0.60;;
21492;SDS011;10908;50.690;4.400;2023-04-01T01:51:50;4.85;;;0.80;;
21492;SDS011;10908;50.690;4.400;2023-04-01T01:54:16;5.07;;;0.80;;
21492;SDS011;10908;50.690;4.400;2023-04-01T01:56:45;5.97;;;1.10;;
21492;SDS011;10908;50.690;4.400;2023-04-01T01:59:14;4.97;;;1.10;;
21492;SDS011;10908;50.690;4.400;2023-04-01T02:01:43;3.33;;;1.13;;
21492;SDS011;10908;50.690;4.400;2023-04-01T02:04:13;4.05;;;1.05;;
21492;SDS011;10908;50.690;4.400;2023-04-01T02:06:56;5.18;;;1.20;;
21492;SDS011;10908;50.690;4.400;2023-04-01T02:09:31;5.18;;;1.35;;
21492;SDS011;10908;50.690;4.400;2023-04-01T02:11:59;4.78;;;1.60;;
21492;SDS011;10908;50.690;4.400;2023-04-01T02:17:17;6.65;;;1.98;;
21492;SDS011;10908;50.690;4.400;2023-04-01T02:19:49;6.72;;;2.20;;
21492;SDS011;10908;50.690;4.400;2023-04-01T02:22:38;7.90;;;2.40;;
21492;SDS011;10908;50.690;4.400;2023-04-01T02:25:11;5.97;;;2.28;;
21492;SDS011;10908;50.690;4.400;2023-04-01T02:27:40;8.05;;;2.85;;
21492;SDS011;10908;50.690;4.400;2023-04-01T02:30:08;7.03;;;2.88;;
21492;SDS011;10908;50.690;4.400;2023-04-01T02:32:34;7.47;;;2.78;;
21492;SDS011;10908;50.690;4.400;2023-04-01T02:35:04;8.45;;;2.95;;
21492;SDS011;10908;50.690;4.400;2023-04-01T02:37:32;8.82;;;2.83;;
21492;SDS011;10908;50.690;4.400;2023-04-01T02:40:02;8.38;;;2.85;;
21492;SDS011;10908;50.690;4.400;2023-04-01T02:42:32;8.45;;;2.92;;
21492;SDS011;10908;50.690;4.400;2023-04-01T02:44:58;9.13;;;3.22;;
21492;SDS011;10908;50.690;4.400;2023-04-01T02:47:24;10.77;;;3.30;;
21492;SDS011;10908;50.690;4.400;2023-04-01T02:49:50;11.18;;;3.42;;
21492;SDS011;10908;50.690;4.400;2023-04-01T02:52:16;13.80;;;3.80;;
21492;SDS011;10908;50.690;4.400;2023-04-01T02:54:41;10.80;;;3.95;;
21492;SDS011;10908;50.690;4.400;2023-04-01T02:57:07;13.25;;;3.58;;
21492;SDS011;10908;50.690;4.400;2023-04-01T02:59:32;12.23;;;3.45;;
21492;SDS011;10908;50.690;4.400;2023-04-01T03:01:58;13.88;;;3.95;;
21492;SDS011;10908;50.690;4.400;2023-04-01T03:04:24;11.57;;;4.05;;
21492;SDS011;10908;50.690;4.400;2023-04-01T03:06:50;11.93;;;4.03;;
21492;SDS011;10908;50.690;4.400;2023-04-01T03:09:16;10.63;;;4.20;;
21492;SDS011;10908;50.690;4.400;2023-04-01T03:11:42;9.30;;;3.40;;
21492;SDS011;10908;50.690;4.400;2023-04-01T03:14:07;10.13;;;3.50;;
21492;SDS011;10908;50.690;4.400;2023-04-01T03:16:33;10.35;;;4.00;;
21492;SDS011;10908;50.690;4.400;2023-04-01T03:18:58;11.70;;;4.03;;
21492;SDS011;10908;50.690;4.400;2023-04-01T03:21:27;9.55;;;4.22;;
21492;SDS011;10908;50.690;4.400;2023-04-01T03:23:52;12.23;;;4.35;;
21492;SDS011;10908;50.690;4.400;2023-04-01T03:26:18;12.18;;;4.43;;
21492;SDS011;10908;50.690;4.400;2023-04-01T03:28:44;10.43;;;4.22;;
21492;SDS011;10908;50.690;4.400;2023-04-01T03:31:11;9.07;;;4.07;;
21492;SDS011;10908;50.690;4.400;2023-04-01T03:33:36;10.68;;;4.32;;
21492;SDS011;10908;50.690;4.400;2023-04-01T03:36:03;9.23;;;4.50;;
21492;SDS011;10908;50.690;4.400;2023-04-01T03:38:31;10.82;;;4.50;;
21492;SDS011;10908;50.690;4.400;2023-04-01T03:40:58;11.55;;;4.28;;
21492;SDS011;10908;50.690;4.400;2023-04-01T03:43:23;11.88;;;4.25;;
21492;SDS011;10908;50.690;4.400;2023-04-01T03:45:50;12.65;;;4.57;;
21492;SDS011;10908;50.690;4.400;2023-04-01T03:48:17;13.40;;;4.53;;
21492;SDS011;10908;50.690;4.400;2023-04-01T03:50:43;9.52;;;4.72;;
21492;SDS011;10908;50.690;4.400;2023-04-01T03:53:09;9.95;;;4.90;;
21492;SDS011;10908;50.690;4.400;2023-04-01T03:55:36;9.30;;;4.85;;
21492;SDS011;10908;50.690;4.400;2023-04-01T03:58:02;11.45;;;4.90;;
21492;SDS011;10908;50.690;4.400;2023-04-01T04:00:31;10.02;;;5.13;;
21492;SDS011;10908;50.690;4.400;2023-04-01T04:02:57;13.27;;;5.90;;
21492;SDS011;10908;50.690;4.400;2023-04-01T04:05:23;13.75;;;5.82;;
21492;SDS011;10908;50.690;4.400;2023-04-01T04:07:50;13.60;;;6.45;;
21492;SDS011;10908;50.690;4.400;2023-04-01T04:10:16;16.25;;;6.88;;
21492;SDS011;10908;50.690;4.400;2023-04-01T04:12:41;15.23;;;6.65;;
21492;SDS011;10908;50.690;4.400;2023-04-01T04:15:07;13.50;;;6.95;;
21492;SDS011;10908;50.690;4.400;2023-04-01T04:17:33;14.88;;;6.10;;
21492;SDS011;10908;50.690;4.400;2023-04-01T04:20:00;12.15;;;6.35;;
21492;SDS011;10908;50.690;4.400;2023-04-01T04:22:26;13.15;;;7.00;;
21492;SDS011;10908;50.690;4.400;2023-04-01T04:24:52;13.90;;;6.30;;
21492;SDS011;10908;50.690;4.400;2023-04-01T04:27:17;13.20;;;6.90;;
21492;SDS011;10908;50.690;4.400;2023-04-01T04:29:43;13.05;;;6.65;;
21492;SDS011;10908;50.690;4.400;2023-04-01T04:32:09;14.68;;;7.03;;
21492;SDS011;10908;50.690;4.400;2023-04-01T04:34:35;15.13;;;6.55;;
21492;SDS011;10908;50.690;4.400;2023-04-01T04:37:00;13.30;;;6.50;;
21492;SDS011;10908;50.690;4.400;2023-04-01T04:39:26;17.92;;;6.50;;
21492;SDS011;10908;50.690;4.400;2023-04-01T04:41:51;12.00;;;5.95;;
21492;SDS011;10908;50.690;4.400;2023-04-01T04:44:17;14.90;;;6.32;;
21492;SDS011;10908;50.690;4.400;2023-04-01T04:46:43;12.48;;;5.95;;
21492;SDS011;10908;50.690;4.400;2023-04-01T04:49:08;12.55;;;6.25;;
21492;SDS011;10908;50.690;4.400;2023-04-01T04:51:34;12.15;;;6.45;;
21492;SDS011;10908;50.690;4.400;2023-04-01T04:54:01;10.07;;;6.03;;
21492;SDS011;10908;50.690;4.400;2023-04-01T04:56:27;12.75;;;6.20;;
21492;SDS011;10908;50.690;4.400;2023-04-01T04:58:52;11.60;;;5.72;;
21492;SDS011;10908;50.690;4.400;2023-04-01T05:01:18;11.77;;;5.68;;
21492;SDS011;10908;50.690;4.400;2023-04-01T05:03:45;10.27;;;5.85;;
21492;SDS011;10908;50.690;4.400;2023-04-01T05:06:12;12.32;;;5.82;;
21492;SDS011;10908;50.690;4.400;2023-04-01T05:08:38;10.75;;;4.97;;
21492;SDS011;10908;50.690;4.400;2023-04-01T05:11:06;10.63;;;5.03;;
21492;SDS011;10908;50.690;4.400;2023-04-01T05:13:37;7.05;;;4.35;;
21492;SDS011;10908;50.690;4.400;2023-04-01T05:16:03;8.05;;;4.85;;
21492;SDS011;10908;50.690;4.400;2023-04-01T05:18:28;8.07;;;4.72;;
21492;SDS011;10908;50.690;4.400;2023-04-01T05:20:54;9.05;;;4.95;;
21492;SDS011;10908;50.690;4.400;2023-04-01T05:23:20;7.88;;;4.65;;
21492;SDS011;10908;50.690;4.400;2023-04-01T05:25:47;7.78;;;4.57;;
21492;SDS011;10908;50.690;4.400;2023-04-01T05:28:14;8.57;;;4.97;;
21492;SDS011;10908;50.690;4.400;2023-04-01T05:30:40;10.48;;;4.78;;
21492;SDS011;10908;50.690;4.400;2023-04-01T05:33:07;7.28;;;4.05;;
21492;SDS011;10908;50.690;4.400;2023-04-01T05:35:34;7.53;;;4.07;;
21492;SDS011;10908;50.690;4.400;2023-04-01T05:38:00;10.02;;;4.47;;
21492;SDS011;10908;50.690;4.400;2023-04-01T05:40:27;8.23;;;4.07;;
21492;SDS011;10908;50.690;4.400;2023-04-01T05:42:53;8.55;;;4.30;;
21492;SDS011;10908;50.690;4.400;2023-04-01T05:45:19;9.30;;;4.57;;
21492;SDS011;10908;50.690;4.400;2023-04-01T05:47:45;9.70;;;5.35;;
21492;SDS011;10908;50.690;4.400;2023-04-01T05:50:11;9.32;;;5.20;;
21492;SDS011;10908;50.690;4.400;2023-04-01T05:52:37;9.82;;;5.47;;
21492;SDS011;10908;50.690;4.400;2023-04-01T05:55:03;10.73;;;5.68;;
21492;SDS011;10908;50.690;4.400;2023-04-01T05:57:30;11.48;;;5.95;;
21492;SDS011;10908;50.690;4.400;2023-04-01T05:59:56;10.60;;;6.20;;
21492;SDS011;10908;50.690;4.400;2023-04-01T06:02:22;13.77;;;6.20;;
21492;SDS011;10908;50.690;4.400;2023-04-01T06:04:48;14.65;;;6.28;;
21492;SDS011;10908;50.690;4.400;2023-04-01T06:07:15;11.73;;;6.70;;
21492;SDS011;10908;50.690;4.400;2023-04-01T06:09:43;16.70;;;6.90;;
21492;SDS011;10908;50.690;4.400;2023-04-01T06:20:47;12.10;;;6.18;;
21492;SDS011;10908;50.690;4.400;2023-04-01T06:36:53;10.95;;;4.93;;
21492;SDS011;10908;50.690;4.400;2023-04-01T06:45:12;10.18;;;4.53;;
21492;SDS011;10908;50.690;4.400;2023-04-01T06:56:15;9.52;;;4.60;;
21492;SDS011;10908;50.690;4.400;2023-04-01T06:58:51;11.10;;;4.50;;
21492;SDS011;10908;50.690;4.400;2023-04-01T07:01:28;8.45;;;3.58;;
21492;SDS011;10908;50.690;4.400;2023-04-01T07:04:42;8.38;;;3.70;;
21492;SDS011;10908;50.690;4.400;2023-04-01T07:07:05;7.13;;;3.67;;
21492;SDS011;10908;50.690;4.400;2023-04-01T07:09:41;6.63;;;3.70;;
21492;SDS011;10908;50.690;4.400;2023-04-01T07:12:21;8.57;;;4.20;;
21492;SDS011;10908;50.690;4.400;2023-04-01T07:15:18;8.77;;;5.28;;
21492;SDS011;10908;50.690;4.400;2023-04-01T07:17:45;9.88;;;5.70;;
21492;SDS011;10908;50.690;4.400;2023-04-01T07:23:20;10.20;;;6.00;;
21492;SDS011;10908;50.690;4.400;2023-04-01T07:25:58;12.88;;;5.50;;
21492;SDS011;10908;50.690;4.400;2023-04-01T07:28:30;11.23;;;5.32;;
21492;SDS011;10908;50.690;4.400;2023-04-01T07:33:42;8.75;;;4.28;;
21492;SDS011;10908;50.690;4.400;2023-04-01T07:39:12;6.65;;;3.88;;
21492;SDS011;10908;50.690;4.400;2023-04-01T07:44:20;6.90;;;2.83;;
21492;SDS011;10908;50.690;4.400;2023-04-01T07:46:56;6.32;;;3.05;;
21492;SDS011;10908;50.690;4.400;2023-04-01T07:52:00;8.13;;;3.78;;
21492;SDS011;10908;50.690;4.400;2023-04-01T07:54:50;8.75;;;4.05;;
21492;SDS011;10908;50.690;4.400;2023-04-01T08:06:26;7.38;;;3.75;;
21492;SDS011;10908;50.690;4.400;2023-04-01T08:12:02;6.47;;;3.42;;
21492;SDS011;10908;50.690;4.400;2023-04-01T08:22:51;4.20;;;1.88;;
21492;SDS011;10908;50.690;4.400;2023-04-01T08:25:39;4.18;;;2.17;;
21492;SDS011;10908;50.690;4.400;2023-04-01T08:28:26;5.70;;;2.45;;
21492;SDS011;10908;50.690;4.400;2023-04-01T08:31:11;4.40;;;2.10;;
21492;SDS011;10908;50.690;4.400;2023-04-01T08:33:41;4.68;;;2.17;;
21492;SDS011;10908;50.690;4.400;2023-04-01T08:36:10;4.50;;;2.40;;
21492;SDS011;10908;50.690;4.400;2023-04-01T08:39:08;6.97;;;2.75;;
21492;SDS011;10908;50.690;4.400;2023-04-01T08:41:42;6.65;;;3.20;;
21492;SDS011;10908;50.690;4.400;2023-04-01T08:52:11;5.38;;;2.20;;
21492;SDS011;10908;50.690;4.400;2023-04-01T09:02:22;4.50;;;1.60;;
21492;SDS011;10908;50.690;4.400;2023-04-01T09:19:33;3.20;;;1.50;;
21492;SDS011;10908;50.690;4.400;2023-04-01T09:22:22;2.63;;;1.13;;
21492;SDS011;10908;50.690;4.400;2023-04-01T09:33:10;3.78;;;1.40;;
21492;SDS011;10908;50.690;4.400;2023-04-01T09:36:07;3.25;;;1.20;;
21492;SDS011;10908;50.690;4.400;2023-04-01T09:46:43;3.45;;;1.33;;
21492;SDS011;10908;50.690;4.400;2023-04-01T10:42:27;4.70;;;2.33;;
21492;SDS011;10908;50.690;4.400;2023-04-01T10:48:01;4.75;;;1.85;;
21492;SDS011;10908;50.690;4.400;2023-04-01T10:53:28;3.65;;;1.80;;
21492;SDS011;10908;50.690;4.400;2023-04-01T11:04:41;3.50;;;1.80;;
21492;SDS011;10908;50.690;4.400;2023-04-01T11:07:43;4.45;;;1.98;;
21492;SDS011;10908;50.690;4.400;2023-04-01T11:25:00;3.40;;;1.75;;
21492;SDS011;10908;50.690;4.400;2023-04-01T11:41:56;6.88;;;2.20;;
21492;SDS011;10908;50.690;4.400;2023-04-01T11:44:43;3.92;;;1.70;;
21492;SDS011;10908;50.690;4.400;2023-04-01T11:47:48;4.47;;;2.05;;
21492;SDS011;10908;50.690;4.400;2023-04-01T11:50:32;6.15;;;1.60;;
21492;SDS011;10908;50.690;4.400;2023-04-01T11:59:13;4.22;;;1.30;;
21492;SDS011;10908;50.690;4.400;2023-04-01T12:01:59;2.42;;;1.00;;
21492;SDS011;10908;50.690;4.400;2023-04-01T12:10:26;4.13;;;1.10;;
21492;SDS011;10908;50.690;4.400;2023-04-01T12:13:12;2.72;;;1.02;;
21492;SDS011;10908;50.690;4.400;2023-04-01T12:33:13;4.00;;;1.92;;
21492;SDS011;10908;50.690;4.400;2023-04-01T12:35:19;5.03;;;2.20;;
21492;SDS011;10908;50.690;4.400;2023-04-01T12:38:20;4.93;;;1.90;;
21492;SDS011;10908;50.690;4.400;2023-04-01T12:43:59;4.57;;;1.50;;
21492;SDS011;10908;50.690;4.400;2023-04-01T12:46:54;4.90;;;1.63;;
21492;SDS011;10908;50.690;4.400;2023-04-01T13:10:56;4.50;;;2.00;;
21492;SDS011;10908;50.690;4.400;2023-04-01T13:13:18;4.40;;;1.92;;
21492;SDS011;10908;50.690;4.400;2023-04-01T13:16:07;4.47;;;1.83;;
21492;SDS011;10908;50.690;4.400;2023-04-01T13:19:01;3.90;;;2.00;;
21492;SDS011;10908;50.690;4.400;2023-04-01T13:29:57;5.47;;;2.30;;
21492;SDS011;10908;50.690;4.400;2023-04-01T13:35:34;5.15;;;2.35;;
21492;SDS011;10908;50.690;4.400;2023-04-01T13:38:17;4.35;;;2.35;;
21492;SDS011;10908;50.690;4.400;2023-04-01T13:43:49;5.88;;;2.40;;
21492;SDS011;10908;50.690;4.400;2023-04-01T14:13:41;5.72;;;1.98;;
21492;SDS011;10908;50.690;4.400;2023-04-01T14:27:24;11.18;;;7.13;;
21492;SDS011;10908;50.690;4.400;2023-04-01T14:35:43;5.30;;;2.17;;
21492;SDS011;10908;50.690;4.400;2023-04-01T14:38:32;4.38;;;1.90;;
21492;SDS011;10908;50.690;4.400;2023-04-01T14:41:28;4.90;;;1.35;;
21492;SDS011;10908;50.690;4.400;2023-04-01T14:47:04;2.83;;;1.10;;
21492;SDS011;10908;50.690;4.400;2023-04-01T14:49:43;3.38;;;1.35;;
21492;SDS011;10908;50.690;4.400;2023-04-01T14:54:55;3.63;;;1.63;;
21492;SDS011;10908;50.690;4.400;2023-04-01T14:57:24;4.80;;;2.53;;
21492;SDS011;10908;50.690;4.400;2023-04-01T15:13:21;3.63;;;1.48;;
21492;SDS011;10908;50.690;4.400;2023-04-01T15:21:50;3.10;;;1.20;;
21492;SDS011;10908;50.690;4.400;2023-04-01T15:24:22;5.57;;;2.22;;
21492;SDS011;10908;50.690;4.400;2023-04-01T15:39:02;2.67;;;0.90;;
21492;SDS011;10908;50.690;4.400;2023-04-01T15:47:32;2.38;;;0.70;;
21492;SDS011;10908;50.690;4.400;2023-04-01T15:50:12;3.83;;;1.27;;
21492;SDS011;10908;50.690;4.400;2023-04-01T15:53:05;2.15;;;0.60;;
21492;SDS011;10908;50.690;4.400;2023-04-01T16:01:08;2.70;;;1.00;;
21492;SDS011;10908;50.690;4.400;2023-04-01T16:12:18;2.70;;;0.90;;
21492;SDS011;10908;50.690;4.400;2023-04-01T16:20:35;3.17;;;1.33;;
21492;SDS011;10908;50.690;4.400;2023-04-01T16:24:20;4.30;;;1.10;;
21492;SDS011;10908;50.690;4.400;2023-04-01T16:26:18;3.20;;;1.10;;
21492;SDS011;10908;50.690;4.400;2023-04-01T16:31:49;4.38;;;1.02;;
21492;SDS011;10908;50.690;4.400;2023-04-01T16:34:34;3.35;;;1.00;;
21492;SDS011;10908;50.690;4.400;2023-04-01T16:37:10;3.88;;;1.10;;
21492;SDS011;10908;50.690;4.400;2023-04-01T16:40:10;5.03;;;1.88;;
21492;SDS011;10908;50.690;4.400;2023-04-01T16:51:22;4.57;;;1.30;;
21492;SDS011;10908;50.690;4.400;2023-04-01T16:53:53;4.05;;;1.10;;
21492;SDS011;10908;50.690;4.400;2023-04-01T16:56:28;3.47;;;1.10;;
21492;SDS011;10908;50.690;4.400;2023-04-01T16:59:14;4.60;;;1.20;;
21492;SDS011;10908;50.690;4.400;2023-04-01T17:04:14;5.60;;;1.10;;
21492;SDS011;10908;50.690;4.400;2023-04-01T17:06:54;5.70;;;1.00;;
21492;SDS011;10908;50.690;4.400;2023-04-01T17:17:32;3.60;;;1.40;;
21492;SDS011;10908;50.690;4.400;2023-04-01T17:23:19;7.25;;;2.90;;
21492;SDS011;10908;50.690;4.400;2023-04-01T17:28:46;4.45;;;2.10;;
21492;SDS011;10908;50.690;4.400;2023-04-01T17:34:31;5.85;;;2.50;;
21492;SDS011;10908;50.690;4.400;2023-04-01T17:37:37;4.50;;;2.00;;
21492;SDS011;10908;50.690;4.400;2023-04-01T17:42:46;6.20;;;2.10;;
21492;SDS011;10908;50.690;4.400;2023-04-01T17:45:49;4.30;;;1.73;;
21492;SDS011;10908;50.690;4.400;2023-04-01T17:51:28;4.22;;;1.70;;
21492;SDS011;10908;50.690;4.400;2023-04-01T17:57:39;5.60;;;2.20;;
21492;SDS011;10908;50.690;4.400;2023-04-01T18:00:17;5.40;;;2.40;;
21492;SDS011;10908;50.690;4.400;2023-04-01T18:02:50;5.20;;;2.53;;
21492;SDS011;10908;50.690;4.400;2023-04-01T18:05:36;4.25;;;1.73;;
21492;SDS011;10908;50.690;4.400;2023-04-01T18:11:13;5.45;;;2.00;;
21492;SDS011;10908;50.690;4.400;2023-04-01T18:13:47;4.90;;;2.30;;
21492;SDS011;10908;50.690;4.400;2023-04-01T18:16:29;4.60;;;1.50;;
21492;SDS011;10908;50.690;4.400;2023-04-01T18:19:08;5.75;;;2.00;;
21492;SDS011;10908;50.690;4.400;2023-04-01T18:21:45;3.88;;;1.92;;
21492;SDS011;10908;50.690;4.400;2023-04-01T18:27:31;4.03;;;1.90;;
21492;SDS011;10908;50.690;4.400;2023-04-01T18:29:48;3.10;;;1.40;;
21492;SDS011;10908;50.690;4.400;2023-04-01T18:40:43;5.28;;;2.65;;
21492;SDS011;10908;50.690;4.400;2023-04-01T18:45:59;4.85;;;2.35;;
21492;SDS011;10908;50.690;4.400;2023-04-01T18:48:40;5.50;;;3.35;;
21492;SDS011;10908;50.690;4.400;2023-04-01T18:51:18;5.75;;;3.30;;
21492;SDS011;10908;50.690;4.400;2023-04-01T18:54:04;7.38;;;2.92;;
21492;SDS011;10908;50.690;4.400;2023-04-01T18:56:39;6.63;;;3.17;;
21492;SDS011;10908;50.690;4.400;2023-04-01T18:59:09;8.02;;;3.80;;
21492;SDS011;10908;50.690;4.400;2023-04-01T19:15:31;6.88;;;3.65;;
21492;SDS011;10908;50.690;4.400;2023-04-01T19:20:46;6.82;;;3.20;;
21492;SDS011;10908;50.690;4.400;2023-04-01T19:26:10;6.85;;;3.72;;
21492;SDS011;10908;50.690;4.400;2023-04-01T19:40:28;7.82;;;4.07;;
21492;SDS011;10908;50.690;4.400;2023-04-01T19:43:08;8.02;;;5.25;;
21492;SDS011;10908;50.690;4.400;2023-04-01T19:45:54;10.07;;;5.90;;
21492;SDS011;10908;50.690;4.400;2023-04-01T19:53:59;12.45;;;6.95;;
21492;SDS011;10908;50.690;4.400;2023-04-01T19:56:50;11.63;;;6.93;;
21492;SDS011;10908;50.690;4.400;2023-04-01T20:05:02;13.60;;;7.93;;
21492;SDS011;10908;50.690;4.400;2023-04-01T20:07:56;15.40;;;8.73;;
21492;SDS011;10908;50.690;4.400;2023-04-01T20:10:51;18.83;;;9.50;;
21492;SDS011;10908;50.690;4.400;2023-04-01T20:16:08;17.30;;;9.10;;
21492;SDS011;10908;50.690;4.400;2023-04-01T20:21:06;13.48;;;8.10;;
21492;SDS011;10908;50.690;4.400;2023-04-01T20:23:52;11.60;;;7.55;;
21492;SDS011;10908;50.690;4.400;2023-04-01T20:26:25;13.73;;;7.82;;
21492;SDS011;10908;50.690;4.400;2023-04-01T20:37:30;12.15;;;7.32;;
21492;SDS011;10908;50.690;4.400;2023-04-01T20:50:52;12.32;;;8.18;;
21492;SDS011;10908;50.690;4.400;2023-04-01T20:53:44;15.10;;;8.45;;
21492;SDS011;10908;50.690;4.400;2023-04-01T20:56:27;14.65;;;8.73;;
21492;SDS011;10908;50.690;4.400;2023-04-01T21:02:33;14.45;;;8.60;;
21492;SDS011;10908;50.690;4.400;2023-04-01T21:07:42;18.85;;;9.77;;
21492;SDS011;10908;50.690;4.400;2023-04-01T21:15:47;15.90;;;10.15;;
21492;SDS011;10908;50.690;4.400;2023-04-01T21:18:33;15.35;;;10.02;;
21492;SDS011;10908;50.690;4.400;2023-04-01T21:21:33;16.17;;;9.13;;
21492;SDS011;10908;50.690;4.400;2023-04-01T21:43:44;15.25;;;10.10;;
21492;SDS011;10908;50.690;4.400;2023-04-01T21:49:32;19.45;;;10.82;;
21492;SDS011;10908;50.690;4.400;2023-04-01T22:06:12;17.85;;;11.65;;
21492;SDS011;10908;50.690;4.400;2023-04-01T22:08:55;20.17;;;11.30;;
21492;SDS011;10908;50.690;4.400;2023-04-01T22:11:37;19.40;;;11.18;;
21492;SDS011;10908;50.690;4.400;2023-04-01T22:16:44;21.02;;;11.18;;
21492;SDS011;10908;50.690;4.400;2023-04-01T22:19:20;18.25;;;10.77;;
21492;SDS011;10908;50.690;4.400;2023-04-01T22:21:59;20.25;;;11.68;;
21492;SDS011;10908;50.690;4.400;2023-04-01T22:24:47;17.17;;;10.30;;
21492;SDS011;10908;50.690;4.400;2023-04-01T22:27:26;16.05;;;10.10;;
21492;SDS011;10908;50.690;4.400;2023-04-01T22:32:57;17.38;;;9.82;;
21492;SDS011;10908;50.690;4.400;2023-04-01T22:40:54;16.17;;;8.50;;
21492;SDS011;10908;50.690;4.400;2023-04-01T22:43:44;12.30;;;7.95;;
21492;SDS011;10908;50.690;4.400;2023-04-01T22:48:43;11.77;;;7.90;;
21492;SDS011;10908;50.690;4.400;2023-04-01T22:56:19;12.60;;;8.43;;
21492;SDS011;10908;50.690;4.400;2023-04-01T22:59:00;11.55;;;8.00;;
21492;SDS011;10908;50.690;4.400;2023-04-01T23:01:41;13.35;;;8.13;;
21492;SDS011;10908;50.690;4.400;2023-04-01T23:04:12;12.68;;;8.18;;
21492;SDS011;10908;50.690;4.400;2023-04-01T23:06:43;12.85;;;8.95;;
21492;SDS011;10908;50.690;4.400;2023-04-01T23:09:25;15.75;;;8.73;;
21492;SDS011;10908;50.690;4.400;2023-04-01T23:11:57;15.00;;;9.20;;
21492;SDS011;10908;50.690;4.400;2023-04-01T23:19:52;15.48;;;9.07;;
21492;SDS011;10908;50.690;4.400;2023-04-01T23:25:12;13.75;;;8.90;;
21492;SDS011;10908;50.690;4.400;2023-04-01T23:28:14;13.88;;;9.05;;
21492;SDS011;10908;50.690;4.400;2023-04-01T23:30:49;14.50;;;8.73;;
21492;SDS011;10908;50.690;4.400;2023-04-01T23:38:18;14.95;;;9.55;;
21492;SDS011;10908;50.690;4.400;2023-04-01T23:40:47;16.27;;;10.00;;
21492;SDS011;10908;50.690;4.400;2023-04-01T23:43:28;13.32;;;8.93;;
21492;SDS011;10908;50.690;4.400;2023-04-01T23:45:57;16.00;;;10.20;;
21492;SDS011;10908;50.690;4.400;2023-04-01T23:48:30;16.02;;;9.40;;
21492;SDS011;10908;50.690;4.400;2023-04-01T23:51:28;12.98;;;8.20;;
21492;SDS011;10908;50.690;4.400;2023-04-01T23:54:02;14.38;;;9.23;;
21492;SDS011;10908;50.690;4.400;2023-04-01T23:56:51;13.00;;;7.85;;
21492;SDS011;10908;50.690;4.400;2023-04-01T23:59:32;12.57;;;8.15;;
